Time;durP1;ratioP1;P1;durP2;ratioP2;P2;SDS_P1;SDS_P2;PMS_P1;PMS_P2;Temp;Humidity;BMP_temperature;BMP_pressure;BME280_temperature;BME280_humidity;BME280_pressure;Samples;Min_cycle;Max_cycle;Signal;HPM_P1;HPM_P2
2022/04/04 00:00:45;;;;;;;37.13;22.42;;;2.10;99.90;;;;;;5063465;28;20078;-74
2022/04/04 00:03:12;;;;;;;42.60;23.48;;;2.00;99.90;;;;;;5064857;28;20520;-74
2022/04/04 00:05:38;;;;;;;53.80;26.98;;;2.00;99.90;;;;;;5063739;28;20025;-74
2022/04/04 00:08:05;;;;;;;66.13;30.27;;;2.00;99.90;;;;;;5063229;28;20043;-75
2022/04/04 00:10:32;;;;;;;68.68;32.05;;;2.00;99.90;;;;;;5064749;28;20021;-74
2022/04/04 00:12:58;;;;;;;43.40;24.55;;;2.00;99.90;;;;;;5063638;28;20017;-76
2022/04/04 00:15:24;;;;;;;37.95;23.20;;;2.00;99.90;;;;;;5063347;28;20356;-75
2022/04/04 00:17:50;;;;;;;38.67;23.38;;;2.00;99.90;;;;;;5064775;28;20090;-74
2022/04/04 00:20:17;;;;;;;38.13;23.17;;;1.90;99.90;;;;;;5062971;28;20121;-74
2022/04/04 00:22:43;;;;;;;44.10;24.67;;;1.90;99.90;;;;;;5063784;28;20463;-74
2022/04/04 00:25:10;;;;;;;41.25;24.02;;;1.90;99.90;;;;;;5064715;28;20116;-75
2022/04/04 00:27:36;;;;;;;66.50;32.67;;;1.90;99.90;;;;;;5063140;28;20033;-76
2022/04/04 00:30:03;;;;;;;61.00;32.00;;;1.90;99.90;;;;;;5063933;28;20020;-75
2022/04/04 00:32:29;;;;;;;59.90;31.88;;;1.90;99.90;;;;;;5064416;28;20047;-74
2022/04/04 00:34:56;;;;;;;65.45;33.05;;;1.90;99.90;;;;;;5062441;28;20471;-74
2022/04/04 00:37:22;;;;;;;76.63;36.28;;;1.80;99.90;;;;;;5063296;28;20032;-75
2022/04/04 00:39:47;;;;;;;70.15;35.08;;;1.80;99.90;;;;;;5064066;28;20456;-74
2022/04/04 00:42:17;;;;;;;75.88;35.47;;;1.80;99.90;;;;;;5062014;28;20472;-75
2022/04/04 00:44:45;;;;;;;70.55;33.72;;;1.80;99.90;;;;;;5063237;28;20028;-75
2022/04/04 00:47:11;;;;;;;69.15;33.92;;;1.70;99.90;;;;;;5064389;28;20013;-75
2022/04/04 00:49:37;;;;;;;74.03;36.25;;;1.80;99.90;;;;;;5062333;28;20040;-74
2022/04/04 00:52:05;;;;;;;82.30;39.20;;;1.80;99.90;;;;;;5062684;28;20024;-75
2022/04/04 00:54:32;;;;;;;79.25;38.13;;;1.70;99.90;;;;;;5064459;28;20021;-73
2022/04/04 00:57:02;;;;;;;71.95;36.13;;;1.80;99.90;;;;;;5062471;28;20040;-73
2022/04/04 00:59:28;;;;;;;79.43;38.90;;;1.70;99.90;;;;;;5062122;28;20044;-74
2022/04/04 01:01:54;;;;;;;73.75;36.05;;;1.70;99.90;;;;;;5064441;28;20028;-74
2022/04/04 01:04:19;;;;;;;79.93;39.33;;;1.70;99.90;;;;;;5062563;28;20107;-73
2022/04/04 01:06:46;;;;;;;77.22;41.75;;;1.70;99.90;;;;;;5062441;28;20028;-75
2022/04/04 01:09:14;;;;;;;93.63;43.88;;;1.60;99.90;;;;;;5063839;28;20028;-74
2022/04/04 01:12:15;;;;;;;78.45;36.03;;;1.60;99.90;;;;;;5062444;28;20020;-74
2022/04/04 01:14:47;;;;;;;58.05;28.58;;;1.60;99.90;;;;;;5010817;28;20026;-74
2022/04/04 01:17:15;;;;;;;61.00;27.10;;;1.60;99.90;;;;;;5010554;28;20191;-73
2022/04/04 01:19:41;;;;;;;50.80;27.08;;;1.50;99.90;;;;;;5010504;28;20033;-74
2022/04/04 01:22:10;;;;;;;55.05;30.30;;;1.50;99.90;;;;;;5010718;28;20069;-74
2022/04/04 01:24:38;;;;;;;65.32;30.17;;;1.50;99.90;;;;;;5007974;28;20081;-73
2022/04/04 01:27:05;;;;;;;51.67;29.30;;;1.40;99.90;;;;;;5010632;28;20022;-74
2022/04/04 01:29:31;;;;;;;54.40;28.90;;;1.40;99.90;;;;;;5010047;28;20056;-74
2022/04/04 01:31:58;;;;;;;50.65;30.05;;;1.40;99.90;;;;;;5010379;28;20029;-74
2022/04/04 01:34:24;;;;;;;52.42;30.55;;;1.40;99.90;;;;;;5010454;28;20038;-74
2022/04/04 01:36:50;;;;;;;56.65;30.27;;;1.40;99.90;;;;;;5010343;28;20428;-73
2022/04/04 01:39:16;;;;;;;46.78;29.27;;;1.40;99.90;;;;;;5010310;28;20602;-72
2022/04/04 01:41:43;;;;;;;55.10;30.77;;;1.30;99.90;;;;;;5010370;28;20092;-73
2022/04/04 01:44:09;;;;;;;57.35;31.02;;;1.40;99.90;;;;;;5010250;28;20045;-73
2022/04/04 01:46:35;;;;;;;51.88;30.52;;;1.30;99.90;;;;;;5007594;28;20018;-75
2022/04/04 01:49:04;;;;;;;56.90;32.83;;;1.30;99.90;;;;;;5038839;28;20059;-74
2022/04/04 01:51:31;;;;;;;56.92;33.35;;;1.30;99.90;;;;;;5053836;28;20472;-74
2022/04/04 01:53:58;;;;;;;65.32;34.65;;;1.30;99.90;;;;;;5053659;28;20467;-73
2022/04/04 01:56:24;;;;;;;59.60;34.83;;;1.30;99.90;;;;;;5035698;28;20029;-75
2022/04/04 01:58:50;;;;;;;61.90;29.83;;;1.30;99.90;;;;;;5053625;28;20045;-73
2022/04/04 02:01:19;;;;;;;60.08;28.40;;;1.30;99.90;;;;;;5053689;28;20029;-74
2022/04/04 02:03:47;;;;;;;54.63;28.13;;;1.30;99.90;;;;;;5053601;28;20468;-75
2022/04/04 02:06:13;;;;;;;54.38;29.13;;;1.20;99.90;;;;;;5053651;28;20032;-73
2022/04/04 02:08:44;;;;;;;56.45;28.88;;;1.20;99.90;;;;;;5053056;28;20081;-73
2022/04/04 02:11:11;;;;;;;55.80;28.70;;;1.20;99.90;;;;;;5053457;28;20138;-75
2022/04/04 02:13:37;;;;;;;58.17;29.15;;;1.20;99.90;;;;;;5053009;28;20025;-74
2022/04/04 02:16:04;;;;;;;65.57;29.67;;;1.20;99.90;;;;;;5052935;28;20046;-75
2022/04/04 02:18:31;;;;;;;58.35;29.15;;;1.20;99.90;;;;;;5052523;28;20383;-75
2022/04/04 02:20:57;;;;;;;56.15;29.45;;;1.20;99.90;;;;;;5052027;28;20028;-75
2022/04/04 02:23:25;;;;;;;62.08;31.23;;;1.20;99.90;;;;;;5052184;28;20691;-73
2022/04/04 02:25:53;;;;;;;57.53;29.48;;;1.20;99.90;;;;;;5052265;28;20025;-74
2022/04/04 02:28:19;;;;;;;67.38;31.95;;;1.20;99.90;;;;;;5052810;28;20124;-73
2022/04/04 02:30:49;;;;;;;73.75;34.75;;;1.20;99.90;;;;;;5053565;28;20025;-73
2022/04/04 02:33:16;;;;;;;88.57;35.40;;;1.20;99.90;;;;;;5053454;28;20028;-73
2022/04/04 02:35:42;;;;;;;78.13;35.65;;;1.20;99.90;;;;;;5053130;28;20026;-73
2022/04/04 02:38:09;;;;;;;81.00;37.15;;;1.10;99.90;;;;;;5052620;28;20041;-75
2022/04/04 02:40:35;;;;;;;94.07;39.20;;;1.10;99.90;;;;;;5054462;28;20029;-74
2022/04/04 02:43:02;;;;;;;84.85;38.58;;;1.10;99.90;;;;;;5056953;28;20036;-73
2022/04/04 02:45:29;;;;;;;94.70;41.25;;;1.00;99.90;;;;;;5057290;28;20086;-74
2022/04/04 02:47:55;;;;;;;98.20;43.47;;;1.00;99.90;;;;;;5056607;28;20033;-72
2022/04/04 02:50:21;;;;;;;109.32;43.75;;;1.00;99.90;;;;;;5056604;28;20545;-73
2022/04/04 02:52:47;;;;;;;112.22;42.15;;;0.90;99.90;;;;;;5056881;28;20033;-75
2022/04/04 02:57:57;;;;;;;99.93;41.97;;;1.00;99.90;;;;;;5056104;28;20510;-75
2022/04/04 03:00:27;;;;;;;95.68;41.60;;;1.00;99.90;;;;;;5056489;28;20025;-75
2022/04/04 03:02:54;;;;;;;85.20;36.95;;;0.90;99.90;;;;;;5056297;28;20513;-74
2022/04/04 03:05:21;;;;;;;79.40;35.75;;;0.90;99.90;;;;;;5056663;28;20479;-72
2022/04/04 03:07:47;;;;;;;83.10;35.25;;;0.90;99.90;;;;;;5056495;28;20452;-72
2022/04/04 03:10:13;;;;;;;84.63;36.13;;;0.90;99.90;;;;;;5056286;28;20040;-72
2022/04/04 03:12:47;;;;;;;78.57;35.03;;;0.80;99.90;;;;;;5056355;28;20104;-74
2022/04/04 03:15:16;;;;;;;89.68;34.33;;;0.80;99.90;;;;;;5056230;28;20025;-73
2022/04/04 03:17:44;;;;;;;90.22;36.10;;;0.80;99.90;;;;;;5055682;28;20745;-75
2022/04/04 03:20:12;;;;;;;90.75;38.15;;;0.80;99.90;;;;;;5055482;28;20379;-73
2022/04/04 03:22:43;;;;;;;102.97;39.80;;;0.80;99.90;;;;;;5056116;28;20017;-73
2022/04/04 03:25:11;;;;;;;96.97;40.03;;;0.80;99.90;;;;;;5055826;28;20021;-73
2022/04/04 03:27:38;;;;;;;121.35;52.70;;;0.80;99.90;;;;;;5056178;28;20033;-75
2022/04/04 03:30:25;;;;;;;130.50;61.08;;;0.80;99.90;;;;;;5055975;28;20024;-73
2022/04/04 03:32:54;;;;;;;120.97;52.78;;;0.80;99.90;;;;;;5055112;28;20041;-71
2022/04/04 03:35:21;;;;;;;116.35;51.05;;;0.80;99.90;;;;;;5056282;28;20032;-72
2022/04/04 03:37:50;;;;;;;115.47;48.58;;;0.80;99.90;;;;;;5055662;28;20037;-73
2022/04/04 03:40:19;;;;;;;107.35;47.63;;;0.70;99.90;;;;;;5066353;28;20056;-73
2022/04/04 03:42:47;;;;;;;107.50;47.08;;;0.70;99.90;;;;;;5075756;28;20024;-72
2022/04/04 03:45:14;;;;;;;121.05;49.70;;;0.70;99.90;;;;;;5075611;28;20070;-73
2022/04/04 03:47:41;;;;;;;121.88;50.25;;;0.60;99.90;;;;;;5075797;28;20039;-72
2022/04/04 03:50:08;;;;;;;133.77;52.85;;;0.60;99.90;;;;;;5076135;28;20052;-73
2022/04/04 03:52:34;;;;;;;125.93;53.38;;;0.60;99.90;;;;;;5075093;28;20024;-73
2022/04/04 03:55:01;;;;;;;136.25;53.58;;;0.60;99.90;;;;;;5075145;28;20043;-72
2022/04/04 03:57:27;;;;;;;122.53;50.67;;;0.60;99.90;;;;;;5074931;28;20502;-75
2022/04/04 03:59:54;;;;;;;136.32;53.72;;;0.60;99.90;;;;;;5075228;28;20056;-73
2022/04/04 04:02:20;;;;;;;117.75;49.50;;;0.50;99.90;;;;;;5056253;28;20464;-72
2022/04/04 04:04:45;;;;;;;118.10;50.47;;;0.50;99.90;;;;;;5055502;28;20047;-73
2022/04/04 04:07:15;;;;;;;141.82;52.38;;;0.50;99.90;;;;;;5057874;28;20443;-72
2022/04/04 04:09:43;;;;;;;126.88;53.13;;;0.50;99.90;;;;;;5055249;28;20048;-74
2022/04/04 04:12:10;;;;;;;142.15;54.28;;;0.50;99.90;;;;;;5068613;28;20027;-73
2022/04/04 04:14:37;;;;;;;142.27;57.38;;;0.50;99.90;;;;;;5075799;28;20037;-73
2022/04/04 04:17:03;;;;;;;147.30;59.47;;;0.40;99.90;;;;;;5063121;28;20108;-73
2022/04/04 04:22:13;;;;;;;252.93;114.93;;;0.40;99.90;;;;;;5066901;28;20082;-74
2022/04/04 04:24:40;;;;;;;265.73;120.97;;;0.40;99.90;;;;;;5075378;28;20032;-72
2022/04/04 04:27:05;;;;;;;335.42;148.98;;;0.40;99.90;;;;;;5071618;28;20031;-72
2022/04/04 04:29:32;;;;;;;296.42;131.40;;;0.40;99.90;;;;;;5075159;28;20036;-72
2022/04/04 04:31:57;;;;;;;285.05;126.45;;;0.40;99.90;;;;;;5074828;28;20029;-73
2022/04/04 04:34:23;;;;;;;267.80;114.28;;;0.40;99.90;;;;;;5068650;28;20440;-74
2022/04/04 04:36:51;;;;;;;248.70;106.20;;;0.40;99.90;;;;;;5064281;28;20355;-73
2022/04/04 04:39:17;;;;;;;238.55;100.93;;;0.40;99.90;;;;;;5068410;28;20036;-74
2022/04/04 04:41:45;;;;;;;354.77;141.27;;;0.50;99.90;;;;;;5075057;28;20029;-73
2022/04/04 04:44:11;;;;;;;219.07;91.90;;;0.50;99.90;;;;;;5074710;28;20166;-72
2022/04/04 04:46:37;;;;;;;214.25;89.78;;;0.50;99.90;;;;;;5074657;28;20017;-74
2022/04/04 04:49:04;;;;;;;199.57;83.47;;;0.50;99.90;;;;;;5074519;28;20024;-72
2022/04/04 04:51:29;;;;;;;230.70;96.57;;;0.60;99.90;;;;;;5074877;28;20031;-71
2022/04/04 04:53:56;;;;;;;149.18;61.33;;;0.70;99.90;;;;;;5074445;28;20021;-73
2022/04/04 04:56:22;;;;;;;136.90;59.38;;;0.70;99.90;;;;;;5074536;28;20086;-72
2022/04/04 04:58:47;;;;;;;145.00;61.97;;;0.80;99.90;;;;;;5074651;28;20434;-73
2022/04/04 05:01:13;;;;;;;123.50;54.42;;;0.90;99.90;;;;;;5069002;28;20029;-73
2022/04/04 05:03:39;;;;;;;120.05;50.28;;;0.90;99.90;;;;;;5054038;28;20025;-74
2022/04/04 05:06:05;;;;;;;115.75;50.40;;;1.00;99.90;;;;;;5054076;28;20029;-72
2022/04/04 05:08:31;;;;;;;142.60;63.28;;;1.00;99.90;;;;;;5055596;28;20060;-74
2022/04/04 05:10:59;;;;;;;129.15;57.28;;;1.20;99.90;;;;;;5053897;28;20364;-74
2022/04/04 05:13:26;;;;;;;170.18;75.35;;;1.30;99.90;;;;;;5053290;28;20041;-73
2022/04/04 05:15:54;;;;;;;106.95;46.40;;;1.40;99.90;;;;;;5036196;28;20024;-75
2022/04/04 05:18:21;;;;;;;95.68;45.20;;;1.40;99.90;;;;;;5054338;28;20477;-74
2022/04/04 05:20:47;;;;;;;107.68;50.65;;;1.50;99.90;;;;;;5054233;28;20029;-74
2022/04/04 05:23:13;;;;;;;88.90;39.72;;;1.50;99.90;;;;;;5053421;28;20029;-76
2022/04/04 05:25:40;;;;;;;110.85;47.25;;;1.60;99.90;;;;;;5053384;28;20051;-74
2022/04/04 05:28:10;;;;;;;86.30;40.35;;;1.60;99.90;;;;;;5053703;28;20083;-74
2022/04/04 05:30:36;;;;;;;79.57;34.60;;;1.70;99.90;;;;;;5054360;28;20032;-74
2022/04/04 05:33:02;;;;;;;72.40;35.17;;;1.60;99.90;;;;;;5052822;28;20021;-73
2022/04/04 05:35:28;;;;;;;115.60;46.05;;;1.70;99.90;;;;;;5035162;28;20025;-75
2022/04/04 05:37:55;;;;;;;128.30;55.47;;;1.60;99.90;;;;;;5053789;28;20119;-76
2022/04/04 05:40:24;;;;;;;90.20;38.78;;;1.80;99.90;;;;;;5053585;28;20099;-75
2022/04/04 05:42:50;;;;;;;79.72;39.00;;;1.90;99.90;;;;;;5053522;28;20079;-75
2022/04/04 05:45:16;;;;;;;89.75;39.25;;;2.00;99.90;;;;;;5053401;28;20106;-74
2022/04/04 05:47:42;;;;;;;90.28;42.22;;;2.10;99.90;;;;;;5054142;28;20120;-75
2022/04/04 05:50:09;;;;;;;118.88;46.33;;;2.20;99.90;;;;;;5035792;28;20116;-75
2022/04/04 05:52:35;;;;;;;120.65;50.42;;;2.30;99.90;;;;;;5053740;28;20482;-76
2022/04/04 05:55:02;;;;;;;116.22;52.17;;;2.40;99.90;;;;;;5053784;28;20025;-76
2022/04/04 05:57:30;;;;;;;119.13;51.63;;;2.50;99.90;;;;;;5053592;28;20472;-76
2022/04/04 05:59:57;;;;;;;101.43;41.42;;;2.60;99.90;;;;;;5053592;28;20442;-75
2022/04/04 06:02:23;;;;;;;88.25;40.92;;;2.70;99.90;;;;;;5053376;28;20021;-76
2022/04/04 06:04:50;;;;;;;142.10;55.42;;;2.90;99.90;;;;;;5035324;28;20029;-75
2022/04/04 06:07:16;;;;;;;107.22;45.15;;;3.00;99.90;;;;;;5053522;28;20054;-76
2022/04/04 06:09:42;;;;;;;86.45;43.22;;;3.20;99.90;;;;;;5053423;28;20033;-74
2022/04/04 06:12:08;;;;;;;86.72;41.15;;;3.30;99.90;;;;;;5053676;28;20032;-74
2022/04/04 06:14:35;;;;;;;96.88;48.42;;;3.40;99.90;;;;;;5054781;28;20028;-74
2022/04/04 06:17:01;;;;;;;87.80;42.22;;;3.60;99.90;;;;;;5057734;28;20103;-76
2022/04/04 06:19:28;;;;;;;82.15;35.95;;;3.70;99.90;;;;;;5039530;28;20036;-75
2022/04/04 06:21:54;;;;;;;80.35;39.05;;;3.80;99.90;;;;;;5057515;28;20025;-75
2022/04/04 06:24:20;;;;;;;88.72;39.88;;;3.90;99.90;;;;;;5057181;28;20483;-75
2022/04/04 06:26:46;;;;;;;79.22;35.80;;;4.00;99.90;;;;;;5057647;28;20194;-77
2022/04/04 06:29:12;;;;;;;65.72;35.05;;;4.20;99.90;;;;;;5039430;28;20033;-75
2022/04/04 06:31:39;;;;;;;63.83;34.20;;;4.40;99.90;;;;;;5056966;28;20021;-75
2022/04/04 06:34:05;;;;;;;69.07;30.90;;;4.50;99.90;;;;;;5055574;28;20036;-75
2022/04/04 06:36:32;;;;;;;67.13;29.92;;;4.70;99.90;;;;;;5056947;28;20028;-75
2022/04/04 06:38:58;;;;;;;58.05;27.90;;;4.80;99.90;;;;;;5056977;28;20036;-76
2022/04/04 06:41:24;;;;;;;57.88;27.42;;;4.90;99.90;;;;;;5057460;28;20028;-75
2022/04/04 06:43:50;;;;;;;50.95;27.27;;;5.10;99.90;;;;;;5057253;28;20103;-77
2022/04/04 06:46:17;;;;;;;51.20;23.65;;;5.20;99.90;;;;;;5056720;28;20083;-76
2022/04/04 06:48:45;;;;;;;51.47;25.50;;;5.20;99.90;;;;;;5057095;28;20464;-75
2022/04/04 06:51:11;;;;;;;47.47;25.45;;;5.30;99.90;;;;;;5056806;28;20478;-75
2022/04/04 06:53:38;;;;;;;54.40;26.55;;;5.40;99.90;;;;;;5056576;28;20033;-75
2022/04/04 06:56:04;;;;;;;44.15;22.70;;;5.60;99.90;;;;;;5038967;28;20365;-75
2022/04/04 06:58:30;;;;;;;50.00;23.55;;;5.70;99.90;;;;;;5056808;28;20054;-77
2022/04/04 07:00:56;;;;;;;41.97;22.25;;;5.90;99.90;;;;;;5056390;28;20021;-75
2022/04/04 07:03:22;;;;;;;44.45;23.08;;;6.00;99.90;;;;;;5057164;28;20033;-75
2022/04/04 07:05:47;;;;;;;54.55;24.80;;;6.10;99.90;;;;;;5056799;28;20089;-76
2022/04/04 07:08:13;;;;;;;67.07;34.17;;;6.20;99.90;;;;;;5056904;28;20052;-75
2022/04/04 07:10:39;;;;;;;50.42;23.33;;;6.40;99.90;;;;;;5056359;28;20078;-75
2022/04/04 07:13:05;;;;;;;45.28;23.40;;;6.60;99.90;;;;;;5056406;28;20024;-77
2022/04/04 07:15:32;;;;;;;48.65;24.83;;;6.80;99.90;;;;;;5038576;28;20025;-76
2022/04/04 07:17:58;;;;;;;53.63;24.75;;;6.80;99.90;;;;;;5056132;28;20025;-76
2022/04/04 07:20:24;;;;;;;38.50;20.85;;;7.00;99.90;;;;;;5038650;28;20027;-75
2022/04/04 07:22:50;;;;;;;37.08;19.58;;;7.00;98.50;;;;;;5056861;28;20394;-75
2022/04/04 07:25:16;;;;;;;43.83;20.95;;;7.10;94.80;;;;;;5056384;28;20029;-76
2022/04/04 07:27:44;;;;;;;34.97;18.83;;;7.30;95.50;;;;;;5055471;28;20468;-75
2022/04/04 07:30:12;;;;;;;35.50;18.63;;;7.60;93.50;;;;;;5055967;28;20123;-77
2022/04/04 07:32:39;;;;;;;33.55;19.88;;;7.80;95.70;;;;;;5056389;28;20025;-75
2022/04/04 07:35:11;;;;;;;45.50;20.27;;;8.00;93.00;;;;;;5038132;28;20025;-76
2022/04/04 07:37:41;;;;;;;35.30;20.65;;;7.90;90.60;;;;;;5056168;28;20368;-78
2022/04/04 07:40:13;;;;;;;33.15;18.45;;;8.10;90.60;;;;;;5056126;28;20068;-76
2022/04/04 07:42:40;;;;;;;47.03;19.05;;;8.40;87.40;;;;;;5038063;28;20025;-75
2022/04/04 07:45:07;;;;;;;24.77;12.77;;;8.60;86.40;;;;;;5055711;28;20040;-78
2022/04/04 07:47:33;;;;;;;24.73;13.20;;;8.80;81.30;;;;;;5055995;28;20029;-76
2022/04/04 07:49:59;;;;;;;26.25;12.90;;;9.00;77.60;;;;;;5055510;28;20025;-78
2022/04/04 07:52:27;;;;;;;26.77;13.32;;;9.30;74.60;;;;;;5055949;28;20475;-76
2022/04/04 07:54:53;;;;;;;21.23;10.95;;;9.50;74.50;;;;;;5038041;28;20025;-77
2022/04/04 07:57:20;;;;;;;23.00;11.25;;;9.50;70.40;;;;;;5055238;28;20098;-77
2022/04/04 07:59:46;;;;;;;35.20;14.57;;;9.80;66.90;;;;;;5055476;28;20029;-76
2022/04/04 08:02:12;;;;;;;35.45;17.90;;;9.80;67.70;;;;;;5055568;28;20025;-77
2022/04/04 08:04:38;;;;;;;19.23;10.48;;;9.80;67.20;;;;;;5056030;28;20032;-76
2022/04/04 08:07:05;;;;;;;17.60;9.43;;;10.00;66.30;;;;;;5055864;28;20021;-78
2022/04/04 08:09:31;;;;;;;19.63;9.27;;;9.90;62.00;;;;;;5055432;28;20468;-77
2022/04/04 08:11:57;;;;;;;17.50;9.10;;;9.90;61.90;;;;;;5055803;28;20039;-77
2022/04/04 08:14:23;;;;;;;18.77;9.50;;;10.00;59.80;;;;;;5055848;28;20025;-78
2022/04/04 08:16:50;;;;;;;20.38;10.50;;;10.30;67.00;;;;;;5055301;28;20029;-76
2022/04/04 08:19:17;;;;;;;15.13;10.15;;;10.60;64.30;;;;;;5055314;28;20041;-77
2022/04/04 08:21:44;;;;;;;18.98;9.20;;;11.00;62.70;;;;;;5037515;28;20033;-76
2022/04/04 08:24:10;;;;;;;19.23;8.88;;;11.40;65.00;;;;;;5055147;28;20029;-76
2022/04/04 08:26:37;;;;;;;16.58;9.45;;;11.10;60.30;;;;;;5055185;28;20483;-75
2022/04/04 08:29:03;;;;;;;15.05;8.77;;;11.30;60.00;;;;;;5055250;28;20411;-74
2022/04/04 08:31:29;;;;;;;13.07;9.48;;;11.20;57.70;;;;;;5055282;28;20055;-76
2022/04/04 08:33:54;;;;;;;18.08;8.95;;;11.30;59.00;;;;;;5055038;28;20083;-76
2022/04/04 08:36:21;;;;;;;13.63;9.25;;;11.70;57.20;;;;;;5055146;28;20075;-73
2022/04/04 08:38:46;;;;;;;17.08;9.95;;;11.90;58.70;;;;;;5053708;28;20041;-76
2022/04/04 08:41:13;;;;;;;22.52;11.68;;;12.20;55.20;;;;;;5037006;28;20353;-74
2022/04/04 08:43:43;;;;;;;19.80;12.57;;;11.90;56.90;;;;;;5055021;28;20021;-74
2022/04/04 08:46:09;;;;;;;22.65;11.95;;;12.30;59.00;;;;;;5054786;28;20021;-76
2022/04/04 08:48:39;;;;;;;18.75;11.23;;;12.30;55.00;;;;;;5054672;28;20508;-77
2022/04/04 08:51:10;;;;;;;13.20;8.90;;;12.60;53.20;;;;;;5054922;28;20029;-78
2022/04/04 08:53:37;;;;;;;19.52;10.77;;;12.40;51.50;;;;;;5054629;28;20025;-78
2022/04/04 08:56:09;;;;;;;19.38;10.63;;;12.60;51.80;;;;;;5036704;28;20029;-74
2022/04/04 08:58:35;;;;;;;17.83;10.60;;;12.80;52.20;;;;;;5054501;28;20135;-76
2022/04/04 09:01:01;;;;;;;18.40;11.75;;;12.90;51.80;;;;;;5054769;28;20025;-75
2022/04/04 09:03:31;;;;;;;18.50;11.73;;;13.20;53.00;;;;;;5054656;28;20044;-75
2022/04/04 09:05:59;;;;;;;18.33;10.88;;;13.30;50.30;;;;;;5054592;28;20032;-74
2022/04/04 09:08:26;;;;;;;14.80;10.40;;;13.00;48.20;;;;;;5054333;28;20079;-74
2022/04/04 09:10:56;;;;;;;19.70;11.90;;;12.90;49.00;;;;;;5054764;28;20507;-78
2022/04/04 09:13:25;;;;;;;28.65;11.48;;;13.20;49.90;;;;;;5036302;28;20028;-78
2022/04/04 09:16:03;;;;;;;18.52;9.82;;;13.10;47.20;;;;;;5054023;28;20025;-78
2022/04/04 09:18:40;;;;;;;18.30;9.85;;;13.20;45.00;;;;;;5054207;28;20514;-76
2022/04/04 09:21:08;;;;;;;14.18;8.75;;;13.30;44.50;;;;;;5053783;28;20099;-77
2022/04/04 09:23:36;;;;;;;17.08;9.23;;;13.20;44.70;;;;;;5053892;28;20043;-75
2022/04/04 09:26:05;;;;;;;18.92;10.35;;;13.00;44.80;;;;;;5036246;28;20112;-77
2022/04/04 09:28:31;;;;;;;19.20;12.93;;;12.90;46.70;;;;;;5053956;28;20107;-76
2022/04/04 09:31:07;;;;;;;21.40;11.75;;;13.40;44.70;;;;;;5054091;28;20120;-75
2022/04/04 09:33:38;;;;;;;26.85;12.45;;;13.40;44.70;;;;;;5053753;28;20036;-75
2022/04/04 09:36:05;;;;;;;15.95;11.93;;;13.70;45.20;;;;;;5036159;28;20025;-77
2022/04/04 09:38:35;;;;;;;19.85;12.07;;;13.90;44.70;;;;;;5053697;28;20033;-76
2022/04/04 09:41:21;;;;;;;16.73;11.40;;;13.50;43.20;;;;;;5053457;28;20032;-78
2022/04/04 09:43:56;;;;;;;20.05;11.63;;;13.60;44.10;;;;;;5053631;28;20029;-76
2022/04/04 09:46:22;;;;;;;18.40;13.00;;;14.00;43.00;;;;;;5053574;28;20507;-78
2022/04/04 09:49:16;;;;;;;19.20;10.20;;;13.50;43.80;;;;;;5035542;28;20119;-76
2022/04/04 09:51:43;;;;;;;22.10;12.68;;;14.00;43.00;;;;;;5053332;28;20028;-75
2022/04/04 09:54:18;;;;;;;21.05;13.13;;;13.80;42.40;;;;;;5053576;28;20052;-76
2022/04/04 09:56:47;;;;;;;18.13;12.15;;;14.50;42.90;;;;;;5053707;28;20029;-76
2022/04/04 09:59:17;;;;;;;14.40;8.90;;;14.60;41.50;;;;;;5053437;28;20095;-76
2022/04/04 10:01:46;;;;;;;16.80;9.25;;;14.20;42.60;;;;;;5052966;28;20041;-77
2022/04/04 10:04:12;;;;;;;14.10;9.30;;;14.70;45.20;;;;;;5053414;28;20025;-76
2022/04/04 10:06:40;;;;;;;18.23;10.45;;;14.70;42.70;;;;;;5053725;28;20090;-76
2022/04/04 10:09:06;;;;;;;22.33;10.50;;;14.50;42.30;;;;;;5053269;28;20485;-77
2022/04/04 10:11:35;;;;;;;17.45;12.50;;;14.90;43.20;;;;;;5053387;28;20028;-77
2022/04/04 10:14:02;;;;;;;15.18;9.10;;;15.00;44.50;;;;;;5053693;28;20033;-77
2022/04/04 10:16:30;;;;;;;29.00;15.48;;;15.10;41.60;;;;;;5053163;28;20025;-77
2022/04/04 10:18:57;;;;;;;13.90;10.13;;;15.10;43.20;;;;;;5053118;28;20037;-77
2022/04/04 10:21:25;;;;;;;11.18;7.90;;;15.20;40.80;;;;;;5053328;28;20059;-76
2022/04/04 10:23:58;;;;;;;13.45;8.23;;;15.20;39.90;;;;;;5053348;28;20040;-78
2022/04/04 10:26:44;;;;;;;16.75;9.27;;;15.40;41.10;;;;;;5053225;28;20021;-75
2022/04/04 10:29:14;;;;;;;24.17;20.60;;;15.20;42.20;;;;;;5053641;28;20056;-75
2022/04/04 10:31:55;;;;;;;18.73;10.38;;;15.20;42.00;;;;;;5053541;28;20017;-78
2022/04/04 10:34:25;;;;;;;16.80;9.10;;;14.70;42.40;;;;;;5053364;28;20025;-77
2022/04/04 10:37:23;;;;;;;15.98;10.50;;;15.10;42.20;;;;;;5053188;28;20025;-77
2022/04/04 10:39:50;;;;;;;17.88;9.90;;;15.60;42.40;;;;;;5031676;28;20044;-77
2022/04/04 10:42:33;;;;;;;12.52;8.35;;;15.40;39.40;;;;;;5053357;28;20029;-78
2022/04/04 10:45:10;;;;;;;16.65;8.48;;;15.60;37.60;;;;;;5053134;28;20025;-77
2022/04/04 10:47:39;;;;;;;12.57;8.45;;;15.70;39.50;;;;;;5053282;28;20025;-77
2022/04/04 10:50:29;;;;;;;20.80;10.32;;;15.40;39.40;;;;;;5053193;28;20036;-77
2022/04/04 10:52:59;;;;;;;16.95;10.45;;;14.40;40.70;;;;;;5035382;28;20025;-76
2022/04/04 10:55:28;;;;;;;13.48;9.10;;;14.00;42.20;;;;;;5053269;28;20032;-77
2022/04/04 10:58:21;;;;;;;14.65;10.48;;;13.90;44.70;;;;;;5052596;28;20480;-75
2022/04/04 11:00:54;;;;;;;24.77;12.00;;;14.40;41.30;;;;;;5052772;28;20100;-77
2022/04/04 11:03:31;;;;;;;13.57;8.23;;;15.30;39.90;;;;;;5056622;28;20064;-75
2022/04/04 11:09:18;;;;;;;11.07;6.65;;;15.90;39.80;;;;;;5021743;28;20086;-74
2022/04/04 11:11:46;;;;;;;12.48;6.57;;;15.80;36.70;;;;;;5044223;28;20029;-77
2022/04/04 11:14:13;;;;;;;6.75;4.80;;;16.80;37.50;;;;;;5056560;28;20094;-77
2022/04/04 11:17:06;;;;;;;8.15;5.50;;;16.70;35.60;;;;;;5056994;28;20104;-76
2022/04/04 11:19:49;;;;;;;11.57;6.07;;;17.10;35.70;;;;;;5056326;28;20040;-76
2022/04/04 11:22:16;;;;;;;10.70;6.32;;;17.10;34.90;;;;;;5056585;28;20025;-77
2022/04/04 11:24:43;;;;;;;8.02;5.35;;;16.20;38.00;;;;;;5038583;28;20025;-77
2022/04/04 11:27:10;;;;;;;8.70;5.72;;;14.70;37.30;;;;;;5056427;28;20106;-77
2022/04/04 11:29:39;;;;;;;9.40;5.80;;;14.50;40.60;;;;;;5056375;28;20025;-77
2022/04/04 11:32:08;;;;;;;9.95;6.18;;;14.60;42.40;;;;;;5056382;28;20025;-76
2022/04/04 11:34:36;;;;;;;12.80;7.38;;;14.40;40.60;;;;;;5056139;28;20025;-77
2022/04/04 11:37:04;;;;;;;14.43;8.23;;;14.00;39.80;;;;;;5038267;28;20468;-76
2022/04/04 11:39:30;;;;;;;20.48;9.85;;;13.60;41.40;;;;;;5055987;28;20029;-75
2022/04/04 11:41:56;;;;;;;12.25;7.05;;;13.90;42.50;;;;;;5055783;28;20067;-76
2022/04/04 11:44:32;;;;;;;14.20;8.85;;;14.00;42.10;;;;;;5056001;28;20108;-76
2022/04/04 11:47:09;;;;;;;16.05;8.23;;;15.00;41.20;;;;;;5055946;28;20033;-76
2022/04/04 11:49:44;;;;;;;13.00;6.10;;;15.60;42.00;;;;;;5055696;28;20025;-77
2022/04/04 11:52:16;;;;;;;14.38;9.32;;;15.60;41.70;;;;;;5055990;28;20024;-77
2022/04/04 11:54:49;;;;;;;42.25;21.80;;;16.20;43.60;;;;;;5055888;28;20387;-76
2022/04/04 11:57:15;;;;;;;13.35;8.98;;;16.50;41.40;;;;;;5055612;28;20467;-76
2022/04/04 11:59:44;;;;;;;10.13;6.40;;;16.50;38.70;;;;;;5055916;28;20071;-75
2022/04/04 12:02:13;;;;;;;12.50;6.65;;;16.10;36.60;;;;;;5055585;28;20029;-75
2022/04/04 12:04:41;;;;;;;18.50;9.63;;;16.00;37.60;;;;;;5055697;28;20029;-74
2022/04/04 12:07:09;;;;;;;45.13;21.70;;;16.40;37.60;;;;;;5056011;28;20033;-76
2022/04/04 12:09:36;;;;;;;53.13;39.70;;;16.60;36.10;;;;;;5037576;28;20029;-76
2022/04/04 12:12:10;;;;;;;24.70;13.13;;;16.50;34.70;;;;;;5055305;28;20025;-77
2022/04/04 12:14:41;;;;;;;15.90;8.13;;;17.10;36.90;;;;;;5055598;28;20021;-76
2022/04/04 12:17:08;;;;;;;22.47;17.97;;;17.00;35.70;;;;;;5055523;28;20025;-75
2022/04/04 12:19:42;;;;;;;15.13;7.05;;;17.40;36.00;;;;;;5055245;28;20036;-74
2022/04/04 12:24:55;;;;;;;16.20;8.23;;;17.40;36.50;;;;;;5052865;28;20056;-74
2022/04/04 12:24:55;;;;;;;15.82;6.65;;;17.20;35.30;;;;;;5052989;28;20021;-74
2022/04/04 12:27:21;;;;;;;13.70;7.07;;;16.10;35.20;;;;;;5053288;28;20079;-74
2022/04/04 12:29:47;;;;;;;20.90;10.77;;;15.20;36.10;;;;;;5052977;28;20041;-75
2022/04/04 12:32:18;;;;;;;10.88;6.18;;;14.70;38.40;;;;;;5053175;28;20025;-75
2022/04/04 12:34:57;;;;;;;9.45;6.18;;;14.20;37.40;;;;;;5037382;28;20057;-73
2022/04/04 12:37:56;;;;;;;15.70;7.60;;;14.20;38.30;;;;;;5054319;28;20028;-74
2022/04/04 12:40:23;;;;;;;10.57;5.88;;;14.70;38.30;;;;;;5012215;28;20068;-74
2022/04/04 12:43:05;;;;;;;13.93;6.28;;;15.60;36.80;;;;;;5054487;28;20027;-75
2022/04/04 12:45:32;;;;;;;14.43;7.88;;;16.60;39.20;;;;;;5054561;28;20029;-75
2022/04/04 12:48:08;;;;;;;16.90;8.55;;;16.90;33.90;;;;;;5054862;28;20033;-76